ADDS METAR Data INFO
IDs: Format: Raw Decoded Include TAF

Data at: 0039 UTC 23 Oct 2017

KLBT 222354Z AUTO 14006KT 10SM OVC055 23/17 A3025 RMK AO2 SLP243 T02280172 10283 20228 53008 TSNO $
KLBT 222254Z AUTO 14004KT 10SM OVC055 24/17 A3024 RMK AO2 SLP239 T02390167 TSNO $
KLBT 222154Z AUTO 11006KT 10SM OVC055 26/17 A3023 RMK AO2 SLP234 T02560167 TSNO $
KLBT 222054Z AUTO 12006KT 10SM OVC060 26/16 A3023 RMK AO2 SLP234 T02610156 56017 TSNO $
KLBT 221954Z AUTO 14004KT 10SM CLR 27/14 A3024 RMK AO2 SLP239 T02670144 TSNO $
KLBT 221854Z AUTO 11010G15KT 10SM BKN047 27/15 A3025 RMK AO2 SLP244 T02720150 TSNO $
KLBT 221754Z AUTO 09009KT 10SM BKN043 OVC050 27/16 A3028 RMK AO2 SLP252 T02720161 10272 20128 58022 TSNO $
KLBT 221654Z AUTO 09007KT 10SM SCT040 SCT050 26/16 A3032 RMK AO2 SLP265 T02560161 TSNO $
KLBT 221554Z AUTO 12007KT 10SM CLR 26/16 A3034 RMK AO2 SLP272 T02560156 TSNO $
KLBT 221454Z AUTO 09005KT 10SM FEW041 23/15 A3034 RMK AO2 SLP274 T02330150 50005 TSNO $
KLBT 221354Z AUTO 09005KT 10SM SCT050 19/14 A3035 RMK AO2 SLP276 T01940139 TSNO $
KLBT 221254Z AUTO 06005KT 8SM FEW055 16/15 A3034 RMK AO2 SLP274 T01610150 TSNO $
KLBT 221154Z AUTO 01003KT 5SM BR BKN050 13/13 A3033 RMK AO2 SLP269 T01280128 10128 20106 53010 TSNO $
KLBT 221054Z AUTO 03003KT 7SM CLR 12/12 A3031 RMK AO2 SLP263 T01220122 TSNO
KLBT 220954Z AUTO 00000KT 10SM CLR 11/11 A3030 RMK AO2 SLP260 T01060106 TSNO
KLBT 220854Z AUTO 00000KT 10SM CLR 11/11 A3030 RMK AO2 SLP259 T01060106 56004 TSNO
KLBT 220754Z AUTO 00000KT 10SM CLR 11/11 A3030 RMK AO2 SLP259 T01110111 TSNO
KLBT 220656Z AUTO 00000KT 4SM BR FEW003 11/11 A3030 RMK AO2 T01060106 TSNO
KLBT 220654Z AUTO 00000KT 1SM BR VV003 11/11 A3031 RMK AO2 SLP261 T01110111 TSNO
KLBT 220636Z AUTO 00000KT 1/4SM FG VV004 11/11 A3031 RMK AO2 T01110111 TSNO
KLBT 220621Z AUTO 00000KT 3/4SM BR CLR 11/11 A3031 RMK AO2 T01110111 TSNO
KLBT 220618Z AUTO 00000KT 1 1/2SM BR CLR 11/11 A3031 RMK AO2 T01110111 TSNO
KLBT 220554Z AUTO 00000KT 10SM CLR 13/13 A3031 RMK AO2 SLP263 T01280128 10156 20117 55005 TSNO $
KLBT 220454Z AUTO 00000KT 10SM CLR 13/13 A3031 RMK AO2 SLP262 T01280128 402720072 TSNO
KLBT 220354Z AUTO 00000KT 10SM CLR 13/13 A3032 RMK AO2 SLP266 T01280128 TSNO
KLBT 220254Z AUTO 00000KT 10SM CLR 14/13 A3032 RMK AO2 SLP267 T01390133 51006 TSNO
KLBT 220154Z AUTO 00000KT 10SM CLR 14/13 A3032 RMK AO2 SLP266 T01440133 TSNO
KLBT 220054Z AUTO 00000KT 10SM CLR 14/13 A3031 RMK AO2 SLP264 T01440133 TSNO
KLBT 212354Z AUTO 00000KT 10SM CLR 14/13 A3031 RMK AO2 SLP263 T01440128 10272 20144 53010 TSNO
KLBT 212254Z AUTO 00000KT 10SM CLR 18/14 A3030 RMK AO2 SLP259 T01780144 TSNO
KLBT 212154Z AUTO 12003KT 10SM CLR 23/13 A3029 RMK AO2 SLP255 T02330133 TSNO
KLBT 212054Z AUTO 14005KT 10SM CLR 26/11 A3028 RMK AO2 SLP252 T02610106 55003 TSNO
KLBT 211954Z AUTO 19003KT 10SM CLR 27/10 A3028 RMK AO2 SLP251 T02670100 TSNO
KLBT 211854Z AUTO VRB03KT 10SM CLR 26/10 A3027 RMK AO2 SLP251 T02610100 TSNO
KLBT 211754Z AUTO 09006KT 10SM CLR 27/10 A3029 RMK AO2 SLP255 T02670100 10267 20083 58012 TSNO
KLBT 211654Z AUTO 00000KT 10SM CLR 26/11 A3031 RMK AO2 SLP263 T02560106 TSNO
KLBT 211554Z AUTO 00000KT 10SM CLR 24/11 A3032 RMK AO2 SLP266 T02440111 TSNO
KLBT 211454Z AUTO 00000KT 10SM CLR 22/12 A3032 RMK AO2 SLP267 T02220122 50011 TSNO
KLBT 211354Z AUTO 00000KT 10SM CLR 18/13 A3032 RMK AO2 SLP268 T01780128 TSNO
KLBT 211254Z AUTO 02003KT 10SM CLR 14/12 A3031 RMK AO2 SLP263 T01390122 TSNO